Weather reports worldwide

Advertisment
Itsaso, Spain (8037): temperature & dewpoint: 17.09.2018 03:00:00 - 23.09.2018 03:00:00 (CEST)Itsaso, Spain (8037): wind speed & gusts: 17.09.2018 03:00:00 - 23.09.2018 03:00:00 (CEST)Itsaso, Spain (8037): wind direction: 17.09.2018 03:00:00 - 23.09.2018 03:00:00 (CEST)Itsaso, Spain (8037): reduced air pressure: 17.09.2018 03:00:00 - 23.09.2018 03:00:00 (CEST)Itsaso, Spain (8037): precipitation: 17.09.2018 03:00:00 - 23.09.2018 03:00:00 (CEST)
Date & Time tt [°C] td [°C] ff [km/h] ff [kn] fx [km/h] fx [kn] dd ppp [hPa] rr [mm]
23.09.2018 03:00:00 - - - - - - - - -
23.09.2018 02:00:00 15,0 14,2 0 0 5 3 N 1024,7 -
23.09.2018 01:00:00 15,8 14,7 1 0 7 4 SW 1024,8 0,0
23.09.2018 00:00:00 16,2 14,9 2 1 10 5 WSW 1024,5 0,0
22.09.2018 23:00:00 16,9 15,3 1 1 9 5 SW 1024,3 0,0
22.09.2018 22:00:00 18,1 15,2 0 0 8 5 W 1023,6 0,0
22.09.2018 21:00:00 19,4 15,1 2 1 7 4 SW 1022,7 0,0
22.09.2018 20:00:00 22,0 14,4 0 0 16 8 NW 1021,9 -
22.09.2018 19:00:00 24,3 13,9 11 6 19 11 NNW 1021,3 0,0
22.09.2018 18:00:00 25,1 14,8 7 4 19 10 N 1020,8 0,0
22.09.2018 17:00:00 27,0 12,6 9 5 22 12 NW 1020,5 0,0
22.09.2018 16:00:00 27,1 12,0 10 5 23 12 WNW 1020,5 0,0
22.09.2018 15:00:00 26,8 12,8 8 4 22 12 WNW 1020,7 0,0
22.09.2018 14:00:00 25,2 13,8 0 0 11 6 SSE 1021,2 -
22.09.2018 13:00:00 23,4 15,4 4 2 11 6 ESE 1021,5 0,0
22.09.2018 12:00:00 20,9 15,3 3 1 9 5 E 1022,0 0,0
22.09.2018 11:00:00 17,8 16,5 2 1 6 3 NE 1022,5 0,0
22.09.2018 10:00:00 15,0 14,8 0 0 3 2 S 1022,6 0,0
22.09.2018 09:00:00 14,6 14,4 1 1 6 3 ENE 1022,5 0,0
22.09.2018 08:00:00 14,5 14,3 1 1 5 3 WSW 1022,3 -
22.09.2018 07:00:00 15,0 14,8 0 0 5 3 N 1021,9 0,0
22.09.2018 06:00:00 15,1 15,0 0 0 3 2 S 1022,0 0,0
22.09.2018 05:00:00 15,1 15,0 0 0 0 0 N 1022,4 0,0
22.09.2018 04:00:00 15,5 15,3 0 0 4 2 N 1022,6 0,0
22.09.2018 03:00:00 15,6 15,4 2 1 5 3 ESE 1022,8 0,0
22.09.2018 02:00:00 15,9 15,7 0 0 4 2 ESE 1023,0 -
22.09.2018 01:00:00 16,1 16,0 1 1 4 2 SSE 1023,1 0,2
22.09.2018 00:00:00 16,4 16,2 0 0 3 2 E 1023,4 0,3
21.09.2018 23:00:00 16,6 16,1 0 0 8 5 S 1022,9 0,0
21.09.2018 22:00:00 16,9 16,0 4 2 14 7 WNW 1023,1 0,0
21.09.2018 21:00:00 17,3 15,4 3 2 10 5 NNW 1022,2 0,0
21.09.2018 20:00:00 17,8 15,3 4 2 13 7 N 1021,9 -
21.09.2018 19:00:00 18,7 15,3 4 2 16 9 N 1021,1 0,0
21.09.2018 18:00:00 19,9 14,2 5 3 20 11 NE 1020,7 0,0
21.09.2018 17:00:00 20,6 13,6 9 5 23 12 NNE 1020,1 0,0
21.09.2018 16:00:00 21,8 12,1 7 4 21 11 N 1019,5 0,0
21.09.2018 15:00:00 22,4 10,9 7 4 16 9 NNW 1019,1 0,0
21.09.2018 14:00:00 23,1 11,2 5 3 19 10 NW 1019,3 -
21.09.2018 13:00:00 22,1 10,9 5 3 13 7 NNW 1019,7 0,0
21.09.2018 12:00:00 21,1 13,3 2 1 9 5 NW 1020,1 0,0
21.09.2018 11:00:00 19,1 14,8 3 2 9 5 WNW 1019,8 0,0
21.09.2018 10:00:00 16,4 13,9 2 1 11 6 W 1019,4 0,0
21.09.2018 09:00:00 14,3 13,4 0 0 9 5 N 1019,0 0,0
21.09.2018 08:00:00 13,8 13,5 1 0 8 4 SW 1018,2 -
21.09.2018 07:00:00 14,2 14,0 1 1 9 5 SW 1017,5 0,0
21.09.2018 06:00:00 15,0 14,8 1 0 5 3 SW 1017,0 0,0
21.09.2018 05:00:00 15,7 15,5 0 0 6 4 NNW 1016,9 0,0
21.09.2018 04:00:00 15,8 15,6 2 1 8 4 WSW 1016,9 0,0
21.09.2018 03:00:00 16,3 16,0 1 1 5 3 SW 1016,9 0,0
21.09.2018 02:00:00 17,1 16,6 1 1 3 2 SSW 1016,6 -
21.09.2018 01:00:00 17,7 16,7 0 0 3 2 SSE 1016,8 0,0
21.09.2018 00:00:00 18,4 17,1 1 1 16 9 W 1017,1 0,0
20.09.2018 23:00:00 18,2 16,7 8 4 22 12 W 1017,1 0,0
20.09.2018 22:00:00 18,5 17,0 10 6 22 12 W 1016,7 0,0
20.09.2018 21:00:00 19,8 17,2 6 3 22 12 W 1015,7 0,0
20.09.2018 20:00:00 21,5 18,1 16 9 35 19 W 1014,8 -
20.09.2018 19:00:00 24,5 18,2 15 8 34 18 W 1013,7 0,0
20.09.2018 18:00:00 29,9 13,7 1 0 21 11 ESE 1012,4 0,0
20.09.2018 17:00:00 30,9 12,7 5 3 19 11 WNW 1012,8 0,0
20.09.2018 16:00:00 30,7 14,7 1 0 15 8 W 1013,3 0,0
20.09.2018 15:00:00 29,2 15,3 5 3 17 9 E 1014,2 0,0
20.09.2018 14:00:00 28,0 16,0 5 3 15 8 SE 1015,1 -
20.09.2018 13:00:00 25,8 15,5 6 3 13 7 NE 1016,2 0,0
20.09.2018 12:00:00 23,2 16,2 4 2 9 5 NE 1017,2 0,0
20.09.2018 11:00:00 20,4 16,6 3 1 8 5 ENE 1017,9 0,0
20.09.2018 10:00:00 17,8 16,8 0 0 5 3 SSE 1018,6 0,0
20.09.2018 09:00:00 17,2 16,7 1 1 5 3 E 1018,9 0,0
20.09.2018 08:00:00 17,0 16,8 0 0 3 2 SSE 1019,1 -
20.09.2018 07:00:00 17,0 16,8 1 0 7 4 SE 1019,2 0,0
20.09.2018 06:00:00 17,2 17,1 1 1 4 2 ESE 1019,6 0,0
20.09.2018 05:00:00 17,4 17,2 0 0 3 1 E 1020,1 0,0
20.09.2018 04:00:00 17,6 17,1 0 0 3 1 NNE 1020,4 0,0
20.09.2018 03:00:00 17,8 17,0 0 0 8 5 WNW 1020,5 0,0
20.09.2018 02:00:00 18,0 16,8 3 2 9 5 NW 1020,8 -
20.09.2018 01:00:00 18,5 16,3 3 1 9 5 NW 1020,8 0,0
20.09.2018 00:00:00 18,7 15,5 3 2 9 5 WNW 1020,9 0,0
19.09.2018 23:00:00 18,9 15,3 3 2 9 5 WNW 1020,9 0,0
19.09.2018 22:00:00 19,2 15,4 3 2 10 6 WNW 1020,3 0,0
19.09.2018 21:00:00 19,5 15,5 3 2 12 7 WNW 1020,2 0,0
19.09.2018 20:00:00 19,6 15,1 8 4 19 11 NNW 1020,0 -
19.09.2018 19:00:00 20,8 15,3 9 5 19 11 NNW 1019,4 0,0
19.09.2018 18:00:00 22,7 16,0 10 5 23 13 NNW 1018,5 0,0
19.09.2018 17:00:00 24,7 16,6 13 7 25 14 NNW 1017,6 0,0
19.09.2018 16:00:00 26,9 16,2 9 5 19 10 N 1017,2 0,0
19.09.2018 15:00:00 26,8 15,5 1 1 12 7 W 1017,5 0,0
19.09.2018 14:00:00 24,6 16,3 4 2 13 7 ENE 1018,2 -
19.09.2018 13:00:00 23,0 16,3 4 2 13 7 ENE 1018,9 0,0
19.09.2018 12:00:00 21,1 16,0 1 1 8 4 NE 1020,0 0,0
19.09.2018 11:00:00 18,8 16,0 4 2 7 4 E 1020,6 0,0
19.09.2018 10:00:00 17,8 16,8 1 0 4 2 WNW 1020,2 0,0
19.09.2018 09:00:00 16,3 16,1 1 1 5 3 WSW 1019,8 0,0
19.09.2018 08:00:00 15,8 15,6 1 1 4 2 W 1019,0 -
19.09.2018 07:00:00 16,3 16,1 1 0 5 3 SW 1018,3 0,0
19.09.2018 06:00:00 16,9 16,6 2 1 6 3 E 1018,0 0,0
19.09.2018 05:00:00 17,3 16,6 0 0 4 2 ENE 1018,4 0,0
19.09.2018 04:00:00 17,6 16,6 0 0 7 4 S 1018,9 0,0
19.09.2018 03:00:00 17,5 16,6 1 0 2 1 WNW 1019,0 0,0
19.09.2018 02:00:00 17,5 16,6 1 0 3 2 ESE 1018,7 -
19.09.2018 01:00:00 17,7 16,6 0 0 5 3 E 1018,8 0,0
19.09.2018 00:00:00 17,8 16,3 1 0 6 3 SSW 1019,0 0,0
18.09.2018 23:00:00 17,9 16,4 0 0 7 4 E 1018,5 0,0
18.09.2018 22:00:00 18,1 16,6 1 1 14 8 NNE 1018,2 0,0
18.09.2018 21:00:00 18,4 16,9 6 4 18 10 NNW 1017,2 0,0
18.09.2018 20:00:00 19,0 17,5 10 6 19 11 NNW 1016,7 -
18.09.2018 19:00:00 19,7 17,3 11 6 25 13 NNW 1015,8 0,0
18.09.2018 18:00:00 21,9 17,3 9 5 20 11 NNW 1014,3 0,0
18.09.2018 17:00:00 23,4 16,9 8 4 21 11 N 1013,7 0,0
18.09.2018 16:00:00 24,9 16,9 8 4 21 11 N 1013,4 0,0
18.09.2018 15:00:00 26,2 15,3 3 2 14 7 NW 1013,3 0,0
18.09.2018 14:00:00 24,4 15,3 6 3 14 8 NE 1014,1 -
18.09.2018 13:00:00 22,5 16,0 4 2 10 5 NNE 1014,6 0,0
18.09.2018 12:00:00 19,4 16,2 2 1 6 4 E 1015,7 0,0
18.09.2018 11:00:00 18,3 16,1 3 2 7 4 ESE 1015,9 0,0
18.09.2018 10:00:00 17,9 15,5 0 0 7 4 W 1015,6 0,0
18.09.2018 09:00:00 17,3 15,3 1 1 8 4 WNW 1015,1 0,0
18.09.2018 08:00:00 15,6 14,3 2 1 5 3 SW 1015,0 -
18.09.2018 07:00:00 15,6 14,3 1 0 3 2 WSW 1014,7 0,0
18.09.2018 06:00:00 15,9 13,8 0 0 2 1 WSW 1014,6 0,0
18.09.2018 05:00:00 16,7 13,8 1 0 7 4 W 1014,6 0,0
18.09.2018 04:00:00 17,2 13,4 1 1 9 5 W 1014,5 0,0
18.09.2018 03:00:00 18,5 13,2 2 1 13 7 W 1014,6 0,0
18.09.2018 02:00:00 19,4 11,7 4 2 16 8 W 1013,9 -
18.09.2018 01:00:00 19,7 10,6 1 0 6 3 WNW 1013,8 0,0
18.09.2018 00:00:00 20,2 10,6 0 0 3 1 SW 1013,7 0,0
17.09.2018 23:00:00 21,5 10,6 1 1 14 8 WNW 1014,0 0,0
17.09.2018 22:00:00 22,2 10,0 1 1 16 9 WSW 1013,9 0,0
17.09.2018 21:00:00 23,7 11,3 4 2 15 8 SE 1012,2 0,0
17.09.2018 20:00:00 26,2 11,6 4 2 16 8 SSE 1011,5 -
17.09.2018 19:00:00 27,1 12,3 3 1 14 8 SSE 1010,3 0,0
17.09.2018 18:00:00 28,4 12,7 6 3 18 10 SE 1010,6 0,0
17.09.2018 17:00:00 29,4 12,7 7 4 26 14 ESE 1011,3 0,0
17.09.2018 16:00:00 29,4 13,2 7 4 24 13 ESE 1011,9 0,0
17.09.2018 15:00:00 28,7 13,8 8 5 28 15 SE 1012,5 0,0
17.09.2018 14:00:00 27,4 13,8 11 6 27 15 ESE 1013,4 -
17.09.2018 13:00:00 26,6 13,7 13 7 34 18 ESE 1014,1 0,0
17.09.2018 12:00:00 25,1 14,5 10 5 25 13 ESE 1014,7 0,0
17.09.2018 11:00:00 23,0 15,1 11 6 26 14 ESE 1015,2 0,0
17.09.2018 10:00:00 20,9 15,7 8 5 17 9 E 1016,0 0,0
17.09.2018 09:00:00 16,9 16,7 0 0 6 3 ENE 1016,7 0,0
17.09.2018 08:00:00 15,5 15,3 0 0 4 2 NW 1017,0 -
17.09.2018 07:00:00 14,4 14,2 0 0 6 3 ESE 1017,0 0,0
17.09.2018 06:00:00 14,7 14,5 0 0 2 1 WNW 1016,9 0,0
17.09.2018 05:00:00 15,5 15,3 0 0 1 1 W 1017,2 0,0
17.09.2018 04:00:00 16,0 15,9 0 0 8 5 SE 1017,7 0,0
17.09.2018 03:00:00 16,5 16,3 2 1 6 3 E 1018,4 0,0

tt = temperature
td = dewpoint
ff = wind speed
fx = gusts
dd = wind direction
ppp = reduced air pressure
rr = precipitation

Next stations